createdAt,value
2018-08-01T06:58:18.247Z,77.68
2018-08-01T06:58:59.121Z,77.33
2018-08-01T06:59:39.857Z,76.84
2018-08-01T07:00:20.666Z,77.13
2018-08-01T07:01:01.476Z,76.84
2018-08-01T07:01:42.233Z,77.03
2018-08-01T07:02:22.964Z,77.52
2018-08-01T07:03:03.768Z,76.25
2018-08-01T07:03:44.502Z,76.54
2018-08-01T07:04:25.378Z,76.45
2018-08-01T07:05:06.226Z,76.84
2018-08-01T07:05:47.083Z,77.72
2018-08-01T07:06:27.863Z,77.23
2018-08-01T07:07:08.605Z,77.81
2018-08-01T07:07:49.429Z,77.42
2018-08-01T07:08:30.262Z,76.54
2018-08-01T07:09:11.063Z,76.54
2018-08-01T07:09:51.848Z,77.33
2018-08-01T07:10:32.776Z,77.52
2018-08-01T07:11:13.703Z,76.64
2018-08-01T07:13:13.599Z,74.15
2018-08-01T07:13:54.430Z,71.78
2018-08-01T07:14:35.189Z,68.59
2018-08-01T07:15:16.070Z,66.3
2018-08-01T07:15:57.233Z,64.63
2018-08-01T07:16:38.034Z,61.71
2018-08-01T07:17:19.957Z,60.09
2018-08-01T07:18:00.639Z,58.77
2018-08-01T07:18:41.429Z,57.24
2018-08-01T07:19:22.326Z,56.29
2018-08-01T07:20:03.121Z,54.93
2018-08-01T07:20:43.887Z,54.14
2018-08-01T07:21:24.627Z,55.1
2018-08-01T07:22:05.339Z,54.41
2018-08-01T07:22:46.291Z,54.8
2018-08-01T07:23:27.003Z,55.54
2018-08-01T07:24:07.767Z,56.48
2018-08-01T07:24:48.641Z,57.21
2018-08-01T07:25:29.460Z,58.36
2018-08-01T07:26:10.301Z,59.12
2018-08-01T07:26:51.015Z,60.07
2018-08-01T07:27:31.813Z,60.27
2018-08-01T07:28:12.595Z,60.73
2018-08-01T07:28:53.362Z,62.08
2018-08-01T07:29:34.219Z,61.58
2018-08-01T07:30:15.081Z,62.08
2018-08-01T07:30:55.978Z,62.08
2018-08-01T07:31:36.963Z,62.08
2018-08-01T07:32:17.769Z,61.78
2018-08-01T07:32:58.600Z,61.68
2018-08-01T07:33:39.400Z,61.13
2018-08-01T07:34:20.154Z,61.42
2018-08-01T07:35:00.917Z,61.13
2018-08-01T07:35:41.861Z,61.29
2018-08-01T07:36:22.705Z,60.93
2018-08-01T07:37:03.594Z,60.27
2018-08-01T07:37:44.360Z,60.66
2018-08-01T07:38:25.214Z,59.91
2018-08-01T07:39:05.978Z,58.09
2018-08-01T07:39:46.782Z,57.82
2018-08-01T07:40:27.626Z,56.04
2018-08-01T07:41:08.402Z,54.19
2018-08-01T07:41:49.192Z,53.25
2018-08-01T07:42:30.022Z,51.84
2018-08-01T07:43:10.900Z,51.52
2018-08-01T07:43:51.666Z,51.25
2018-08-01T07:44:32.427Z,51.45
2018-08-01T07:45:13.199Z,49.64
2018-08-01T07:45:54.380Z,49.07
2018-08-01T07:46:35.255Z,47.35
2018-08-01T07:47:16.023Z,46.68
2018-08-01T07:47:56.840Z,46.66
2018-08-01T07:48:37.940Z,48.72
2018-08-01T07:49:18.516Z,49.22
2018-08-01T07:49:59.399Z,47.55
2018-08-01T07:50:40.162Z,45.71
2018-08-01T07:51:20.955Z,45.18
2018-08-01T07:52:01.762Z,43.27
2018-08-01T07:52:42.517Z,41.96
2018-08-01T07:53:23.380Z,42.53
2018-08-01T07:54:04.311Z,42.73
2018-08-01T07:54:45.122Z,42.75
2018-08-01T07:55:25.993Z,41.67
2018-08-01T07:56:06.783Z,41.77
2018-08-01T07:56:47.631Z,42.94
2018-08-01T07:57:28.418Z,43.82
2018-08-01T07:58:09.189Z,43.11
2018-08-01T07:58:50.032Z,42.27
2018-08-01T07:59:30.851Z,42.01
2018-08-01T08:00:11.746Z,42.43
2018-08-01T08:00:52.388Z,41.75
2018-08-01T08:01:33.123Z,40.22
2018-08-01T08:02:13.956Z,39.84
2018-08-01T08:02:54.847Z,39.26
2018-08-01T08:03:35.675Z,40.22
2018-08-01T08:04:16.455Z,40.42
2018-08-01T08:04:57.217Z,39.36
2018-08-01T08:05:38.023Z,38.38
2018-08-01T08:06:18.873Z,39.32
2018-08-01T08:06:59.667Z,39.06
2018-08-01T08:07:40.404Z,38.76
2018-08-01T08:08:21.241Z,38.59
2018-08-01T08:09:02.049Z,38.2
2018-08-01T08:09:42.913Z,39.58
2018-08-01T08:10:23.638Z,40.46
2018-08-01T08:11:04.451Z,39.68
2018-08-01T08:11:45.247Z,40.06
2018-08-01T08:12:26.037Z,40.2
2018-08-01T08:13:06.832Z,38.56
2018-08-01T08:13:47.615Z,37.88
2018-08-01T08:14:28.454Z,38.07
2018-08-01T08:15:09.267Z,37.61
2018-08-01T08:15:50.092Z,36.33
2018-08-01T08:16:30.868Z,35.75
2018-08-01T08:17:11.734Z,35.76
2018-08-01T08:17:52.538Z,35.76
2018-08-01T08:18:33.448Z,35.56
2018-08-01T08:19:14.197Z,35.26
2018-08-01T08:19:54.975Z,35.26
2018-08-01T08:20:35.718Z,36.01
2018-08-01T08:21:16.640Z,38.12
2018-08-01T08:21:57.393Z,39.18
2018-08-01T08:22:38.252Z,39.74
2018-08-01T08:23:19.032Z,39.58
2018-08-01T08:23:59.808Z,38.54
2018-08-01T08:24:40.681Z,37.7
2018-08-01T08:25:21.445Z,36.88
2018-08-01T08:26:02.187Z,38.22
2018-08-01T08:26:42.958Z,37.96
2018-08-01T08:27:23.801Z,38.12
2018-08-01T08:28:04.589Z,39.48
2018-08-01T08:28:45.409Z,40.18
2018-08-01T08:29:26.285Z,37.59
2018-08-01T08:30:07.157Z,35.38
2018-08-01T08:30:47.943Z,33.65
2018-08-01T08:31:28.776Z,32.09
2018-08-01T08:32:09.615Z,31.3
2018-08-01T08:32:50.345Z,31.49
2018-08-01T08:33:31.203Z,30.82
2018-08-01T08:34:11.971Z,30.02
2018-08-01T08:34:52.737Z,30.88
2018-08-01T08:35:33.527Z,31.66
2018-08-01T08:36:14.437Z,33.51
2018-08-01T08:36:55.356Z,34.14
2018-08-01T08:37:36.148Z,34.44
2018-08-01T08:38:16.989Z,34.23
2018-08-01T08:38:57.798Z,35.46
2018-08-01T08:39:38.592Z,39.09
2018-08-01T08:40:19.351Z,41.77
2018-08-01T08:41:00.230Z,42.86
2018-08-01T08:41:41.037Z,42.86
2018-08-01T08:42:21.860Z,44.55
2018-08-01T08:43:02.642Z,45.28
2018-08-01T08:43:43.457Z,46.52
2018-08-01T08:44:24.311Z,48.26
2018-08-01T08:45:05.318Z,48.24
2018-08-01T08:45:46.111Z,49.01
2018-08-01T08:46:26.916Z,51.4
2018-08-01T08:47:07.711Z,51.47
2018-08-01T08:47:48.515Z,52.23
2018-08-01T08:48:29.428Z,52.4
2018-08-01T08:49:10.137Z,52.68
2018-08-01T08:49:50.913Z,54.16
2018-08-01T08:50:31.787Z,56.07
2018-08-01T08:51:12.717Z,56.43
2018-08-01T08:51:53.503Z,57.12
2018-08-01T08:52:34.226Z,57.2
2018-08-01T08:53:15.008Z,57.07
2018-08-01T08:53:55.868Z,57.46
2018-08-01T08:54:36.599Z,58.05
2018-08-01T08:55:17.468Z,58.22
2018-08-01T08:55:58.282Z,58.71
2018-08-01T08:56:39.093Z,60.18
2018-08-01T08:57:19.888Z,60.45
2018-08-01T08:58:00.697Z,60.15
2018-08-01T08:58:41.530Z,60.84
2018-08-01T08:59:22.304Z,60.64
2018-08-01T09:00:03.089Z,60.84
2018-08-01T09:00:43.893Z,61.2
2018-08-01T09:01:24.735Z,61.5
2018-08-01T09:02:05.537Z,62.15
2018-08-01T09:02:46.291Z,62.05
2018-08-01T09:03:27.118Z,62.35
2018-08-01T09:04:07.952Z,63.49
2018-08-01T09:04:48.701Z,62.51
2018-08-01T09:05:29.453Z,62.71
2018-08-01T09:06:10.239Z,63.2
2018-08-01T09:06:51.023Z,63.3
2018-08-01T09:07:31.888Z,63.59
2018-08-01T09:08:12.673Z,63.2
2018-08-01T09:08:53.463Z,64.54
2018-08-01T09:09:34.285Z,65.03
2018-08-01T09:10:15.104Z,65.39
2018-08-01T09:10:55.907Z,65.39
2018-08-01T09:11:36.657Z,65
2018-08-01T09:12:17.485Z,65.59
2018-08-01T09:12:58.274Z,65.78
2018-08-01T09:13:39.115Z,65.78
2018-08-01T09:14:19.914Z,66.17
2018-08-01T09:15:00.724Z,65.55
2018-08-01T09:15:41.516Z,66.89
2018-08-01T09:16:22.244Z,66.89
2018-08-01T09:17:03.107Z,66.6
2018-08-01T09:17:43.863Z,66.2
2018-08-01T09:18:24.619Z,66.6
2018-08-01T09:19:05.408Z,66.69
2018-08-01T09:19:46.198Z,66.8
2018-08-01T09:20:27.012Z,66.99
2018-08-01T09:21:07.840Z,66.93
2018-08-01T09:21:48.720Z,67.19
2018-08-01T09:22:29.470Z,67.09
2018-08-01T09:23:10.199Z,67.38
2018-08-01T09:23:50.970Z,67.68
2018-08-01T09:24:31.762Z,67.38
2018-08-01T09:25:12.602Z,67.64
2018-08-01T09:25:53.368Z,67.38
2018-08-01T09:26:34.155Z,67.29
2018-08-01T09:27:15.019Z,67.19
2018-08-01T09:27:55.803Z,67.48
2018-08-01T09:28:36.621Z,68.13
2018-08-01T09:29:17.375Z,67.83
2018-08-01T09:29:58.127Z,68.23
2018-08-01T09:30:38.928Z,68.23
2018-08-01T09:31:19.730Z,68.59
2018-08-01T09:32:00.557Z,68.59
2018-08-01T09:32:41.407Z,68.03
2018-08-01T09:33:22.145Z,68.03
2018-08-01T09:34:03.043Z,67.83
2018-08-01T09:34:43.737Z,68.23
2018-08-01T09:35:24.502Z,68.32
2018-08-01T09:36:05.300Z,68.71
2018-08-01T09:36:46.091Z,68.59
2018-08-01T09:37:26.875Z,69.17
2018-08-01T09:38:07.708Z,68.88
2018-08-01T09:38:48.462Z,68.98
2018-08-01T09:39:29.230Z,69.07
2018-08-01T09:40:10.095Z,68.98
2018-08-01T09:40:50.947Z,69.01
2018-08-01T09:41:31.783Z,68.91
2018-08-01T09:42:12.571Z,69.37
2018-08-01T09:42:53.356Z,69.76
2018-08-01T09:43:34.249Z,69.66
2018-08-01T09:44:14.967Z,69.92
2018-08-01T09:44:55.724Z,69.53
2018-08-01T09:45:36.497Z,70.02
2018-08-01T09:46:17.279Z,70.02
2018-08-01T09:46:58.088Z,70.02
2018-08-01T09:47:38.909Z,70.21
2018-08-01T09:48:19.702Z,70.34
2018-08-01T09:49:00.476Z,70.64
2018-08-01T09:49:41.218Z,70.02
2018-08-01T09:50:21.977Z,70.44
2018-08-01T09:51:02.839Z,70.25
2018-08-01T09:51:43.600Z,70.54
2018-08-01T09:52:24.350Z,70.31
2018-08-01T09:53:05.364Z,70.34
2018-08-01T09:53:46.327Z,70.83
2018-08-01T09:54:27.322Z,71.09
2018-08-01T09:55:08.269Z,71.19
2018-08-01T09:55:48.893Z,70.8
2018-08-01T09:56:29.272Z,71.64
2018-08-01T09:57:10.047Z,71.64
2018-08-01T09:57:50.899Z,71.68
2018-08-01T09:58:31.700Z,71.48
2018-08-01T09:59:12.519Z,71.64
2018-08-01T09:59:53.281Z,71.45
2018-08-01T10:00:34.108Z,71.45
2018-08-01T10:01:14.921Z,70.8
2018-08-01T10:01:55.695Z,70.7
2018-08-01T10:02:36.531Z,70.9
2018-08-01T10:03:17.272Z,69.73
2018-08-01T10:03:58.092Z,69.34
2018-08-01T10:04:38.951Z,69.59
2018-08-01T10:05:19.825Z,70.21
2018-08-01T10:06:00.653Z,70.41
2018-08-01T10:06:41.447Z,70.12
2018-08-01T10:07:22.205Z,70.41
2018-08-01T10:08:03.052Z,69.92
2018-08-01T10:08:43.847Z,70.61
2018-08-01T10:09:24.639Z,70.51
2018-08-01T10:10:05.489Z,70.18
2018-08-01T10:10:46.334Z,70.02
2018-08-01T10:11:27.186Z,70.37
2018-08-01T10:12:07.994Z,69.98
2018-08-01T10:12:48.759Z,70.28
2018-08-01T10:13:29.546Z,69.82
2018-08-01T10:14:10.378Z,70.21
2018-08-01T10:14:51.133Z,70.37
2018-08-01T10:15:31.909Z,70.08
2018-08-01T10:16:12.643Z,69.98
2018-08-01T10:16:53.442Z,69.79
2018-08-01T10:17:34.220Z,69.89
2018-08-01T10:18:14.959Z,69.69
2018-08-01T10:18:55.767Z,69.89
2018-08-01T10:19:36.661Z,69.69
2018-08-01T10:20:17.565Z,69.4
2018-08-01T10:20:58.381Z,69.98
2018-08-01T10:21:39.104Z,70.18
2018-08-01T10:22:19.826Z,69.98
2018-08-01T10:23:00.604Z,69.63
2018-08-01T10:23:41.467Z,70.37
2018-08-01T10:24:22.259Z,70.18
2018-08-01T10:25:03.094Z,70.37
2018-08-01T10:25:43.872Z,70.21
2018-08-01T10:26:24.668Z,70.21
2018-08-01T10:27:05.660Z,70.21
2018-08-01T10:27:46.294Z,70.41
2018-08-01T10:28:27.066Z,69.53
2018-08-01T10:29:07.806Z,69.24
2018-08-01T10:29:48.618Z,69.98
2018-08-01T10:30:29.440Z,69.59
2018-08-01T10:31:10.148Z,69.69
2018-08-01T10:31:50.940Z,69.3
2018-08-01T10:32:31.763Z,69.49
2018-08-01T10:33:12.603Z,67.64
2018-08-01T10:33:53.390Z,67.93
2018-08-01T10:34:34.139Z,67.83
2018-08-01T10:35:14.908Z,68.32
2018-08-01T10:35:55.723Z,69.01
2018-08-01T10:36:36.459Z,69.1
2018-08-01T10:37:17.256Z,69.59
2018-08-01T10:37:57.967Z,69.73
2018-08-01T10:38:38.801Z,69.43
2018-08-01T10:39:19.632Z,69.53
2018-08-01T10:40:00.503Z,70.12
2018-08-01T10:40:41.260Z,70.21
2018-08-01T10:41:21.995Z,70.21
2018-08-01T10:42:02.777Z,70.31
2018-08-01T10:42:43.569Z,70.02
2018-08-01T10:43:24.421Z,70.21
2018-08-01T10:44:05.147Z,70.12
2018-08-01T10:44:45.969Z,70.21
2018-08-01T10:45:26.808Z,70.31
2018-08-01T10:46:07.589Z,70.12
2018-08-01T10:46:48.406Z,70.08
2018-08-01T10:47:29.158Z,70.86
2018-08-01T10:48:09.983Z,71.15
2018-08-01T10:48:50.848Z,71.06
2018-08-01T10:49:31.628Z,71.45
2018-08-01T10:50:12.378Z,71.25
2018-08-01T10:50:53.204Z,71.15
2018-08-01T10:51:34.018Z,70.86
2018-08-01T10:52:14.850Z,70.57
2018-08-01T10:52:55.691Z,71
2018-08-01T10:53:36.477Z,70.61
2018-08-01T10:54:17.313Z,70.67
2018-08-01T10:54:58.106Z,70.8
2018-08-01T10:55:38.941Z,70.9
2018-08-01T10:56:19.705Z,70.9
2018-08-01T10:57:00.520Z,70.96
2018-08-01T10:57:41.329Z,70.37
2018-08-01T10:58:22.217Z,69.89
2018-08-01T10:59:03.036Z,70.08
2018-08-01T10:59:43.894Z,69.3
2018-08-01T11:00:24.640Z,69.49
2018-08-01T11:01:05.439Z,69.89
2018-08-01T11:01:46.294Z,69.89
2018-08-01T11:02:27.066Z,69.98
2018-08-01T11:03:07.898Z,69.98
2018-08-01T11:03:48.618Z,70.61
2018-08-01T11:04:29.484Z,70.37
2018-08-01T11:05:10.416Z,70.37
2018-08-01T11:05:51.240Z,70.08
2018-08-01T11:06:32.038Z,70.61
2018-08-01T11:07:12.773Z,70.37
2018-08-01T11:07:53.565Z,70.37
2018-08-01T11:08:34.408Z,71
2018-08-01T11:09:15.203Z,70.31
2018-08-01T11:09:55.957Z,70.31
2018-08-01T11:10:36.776Z,70.9
2018-08-01T11:11:17.527Z,70.8
2018-08-01T11:11:58.369Z,71
2018-08-01T11:12:39.216Z,70.61
2018-08-01T11:13:20.001Z,70.7
2018-08-01T11:14:00.766Z,70.9
2018-08-01T11:14:41.478Z,71.09
2018-08-01T11:15:22.334Z,70.9
2018-08-01T11:16:03.136Z,70.7
2018-08-01T11:16:43.960Z,71.39
2018-08-01T11:17:24.742Z,71.48
2018-08-01T11:18:05.629Z,70.96
2018-08-01T11:18:46.342Z,71
2018-08-01T11:19:27.143Z,71.09
2018-08-01T11:20:07.885Z,70.7
2018-08-01T11:20:48.640Z,70.9
2018-08-01T11:21:29.424Z,71.58
2018-08-01T11:22:10.368Z,71.29
2018-08-01T11:22:51.142Z,71.64
2018-08-01T11:23:31.911Z,71.09
2018-08-01T11:24:12.718Z,71.39
2018-08-01T11:24:53.560Z,71.19
2018-08-01T11:25:34.420Z,71.58
2018-08-01T11:26:15.191Z,72.07
2018-08-01T11:26:55.974Z,71.39
2018-08-01T11:27:36.803Z,71.19
2018-08-01T11:28:17.610Z,71.19
2018-08-01T11:28:58.455Z,71.19
2018-08-01T11:29:39.103Z,71.29
2018-08-01T11:30:19.912Z,71.29
2018-08-01T11:31:00.809Z,70.8
2018-08-01T11:31:41.577Z,70.41
2018-08-01T11:32:22.397Z,71.09
2018-08-01T11:33:03.177Z,70.9
2018-08-01T11:33:43.935Z,71.19
2018-08-01T11:34:24.679Z,70.9
2018-08-01T11:35:05.455Z,70.41
2018-08-01T11:35:46.336Z,70.12
2018-08-01T11:36:27.083Z,70.31
2018-08-01T11:37:07.843Z,70.8
2018-08-01T11:37:48.670Z,71.19
2018-08-01T11:38:29.518Z,70.7
2018-08-01T11:39:10.355Z,70.9
2018-08-01T11:39:51.132Z,71.19
2018-08-01T11:40:31.967Z,71.09
2018-08-01T11:41:12.728Z,71.39
2018-08-01T11:41:53.476Z,70.9
2018-08-01T11:42:34.272Z,69.73
2018-08-01T11:43:15.024Z,69.3
2018-08-01T11:43:55.823Z,67.19
2018-08-01T11:44:36.648Z,68.07
2018-08-01T11:45:17.432Z,68.55
2018-08-01T11:45:58.263Z,68.95
2018-08-01T11:46:39.021Z,69.34
2018-08-01T11:47:19.826Z,69.43
2018-08-01T11:48:00.744Z,69.24
2018-08-01T11:48:41.488Z,69.04
2018-08-01T11:49:22.264Z,68.81
2018-08-01T11:50:03.072Z,69.04
2018-08-01T11:50:43.909Z,69.73
2018-08-01T11:51:24.778Z,67.58
2018-08-01T11:52:05.582Z,67.83
2018-08-01T11:52:46.346Z,66.27
2018-08-01T11:53:27.124Z,66.37
2018-08-01T11:54:07.981Z,65.39
2018-08-01T11:54:48.732Z,67.15
2018-08-01T11:55:29.533Z,67.25
2018-08-01T11:56:10.278Z,67.77
2018-08-01T11:56:51.167Z,68.26
2018-08-01T11:57:31.900Z,68.16
2018-08-01T11:58:12.656Z,68.95
2018-08-01T11:58:53.472Z,68.16
2018-08-01T11:59:34.289Z,68.55
2018-08-01T12:00:15.091Z,69.34
2018-08-01T12:00:55.858Z,69.14
2018-08-01T12:01:36.586Z,69.14
2018-08-01T12:02:17.452Z,69.82
2018-08-01T12:02:58.296Z,67.87
2018-08-01T12:03:39.077Z,68.95
2018-08-01T12:04:19.798Z,68.95
2018-08-01T12:05:00.560Z,67.38
2018-08-01T12:05:41.403Z,68.16
2018-08-01T12:06:22.196Z,68.65
2018-08-01T12:07:03.066Z,69.14
2018-08-01T12:07:43.834Z,68.95
2018-08-01T12:08:24.612Z,69.73
2018-08-01T12:09:05.366Z,69.34
2018-08-01T12:09:46.224Z,69.73
2018-08-01T12:10:27.001Z,69.24
2018-08-01T12:11:07.778Z,69.63
2018-08-01T12:11:48.523Z,69.53
2018-08-01T12:12:29.362Z,69.53
2018-08-01T12:13:10.229Z,69.73
2018-08-01T12:13:51.004Z,69.24
2018-08-01T12:14:31.795Z,69.24
2018-08-01T12:15:12.614Z,69.53
2018-08-01T12:15:53.259Z,69.14
2018-08-01T12:16:34.127Z,69.43
2018-08-01T12:17:14.967Z,69.53
2018-08-01T12:17:55.833Z,69.14
2018-08-01T12:18:36.552Z,69.24
2018-08-01T12:19:17.315Z,69.04
2018-08-01T12:19:58.146Z,69.34
2018-08-01T12:20:39.021Z,69.53
2018-08-01T12:21:19.734Z,69.43
2018-08-01T12:22:00.586Z,69.14
2018-08-01T12:22:41.406Z,69.92
2018-08-01T12:23:22.299Z,69.63
2018-08-01T12:24:03.156Z,69.34
2018-08-01T12:24:44.040Z,70.12
2018-08-01T12:25:24.810Z,69.53
2018-08-01T12:26:05.616Z,69.73
2018-08-01T12:26:46.378Z,69.82
2018-08-01T12:27:27.212Z,69.73
2018-08-01T12:28:08.014Z,69.82
2018-08-01T12:28:48.795Z,69.92
2018-08-01T12:29:29.726Z,69.73
2018-08-01T12:30:10.584Z,69.92
2018-08-01T12:30:51.429Z,70.41
2018-08-01T12:31:32.193Z,69.92
2018-08-01T12:32:12.943Z,70.21
2018-08-01T12:32:53.766Z,70.21
2018-08-01T12:33:34.534Z,70.21
2018-08-01T12:34:15.287Z,70.21
2018-08-01T12:34:56.039Z,70.9
2018-08-01T12:35:36.797Z,70.31
2018-08-01T12:36:17.622Z,70.21
2018-08-01T12:36:58.408Z,70.41
2018-08-01T12:37:39.210Z,70.61
2018-08-01T12:38:20.013Z,70.21
2018-08-01T12:39:00.842Z,69.92
2018-08-01T12:39:41.721Z,70.41
2018-08-01T12:40:22.498Z,70.96
2018-08-01T12:41:03.254Z,70.8
2018-08-01T12:41:44.024Z,70.9
2018-08-01T12:42:24.856Z,70.8
2018-08-01T12:43:05.693Z,70.41
2018-08-01T12:43:46.577Z,70.31
2018-08-01T12:44:27.345Z,70.41
2018-08-01T12:45:08.098Z,70.31
2018-08-01T12:45:48.932Z,70.41
2018-08-01T12:46:29.731Z,70.31
2018-08-01T12:47:10.499Z,70.12
2018-08-01T12:47:51.240Z,70.41
2018-08-01T12:48:31.986Z,70.12
2018-08-01T12:49:12.785Z,70.51
2018-08-01T12:49:53.568Z,70.31
2018-08-01T12:50:34.336Z,70.21
2018-08-01T12:51:15.180Z,70.31
2018-08-01T12:51:56.012Z,70.21
2018-08-01T12:52:36.832Z,70.31
2018-08-01T12:53:17.608Z,70.21
2018-08-01T12:53:58.388Z,70.61
2018-08-01T12:54:39.239Z,70.21
2018-08-01T12:55:20.070Z,69.92
2018-08-01T12:56:00.834Z,70.31
2018-08-01T12:56:41.601Z,70.12
2018-08-01T12:57:22.408Z,70.8
2018-08-01T12:58:03.210Z,70.8
2018-08-01T12:58:44.047Z,71
2018-08-01T12:59:24.845Z,71
2018-08-01T13:00:05.603Z,70.12
2018-08-01T13:00:46.370Z,70.31
2018-08-01T13:01:27.151Z,69.53
2018-08-01T13:02:07.984Z,69.73
2018-08-01T13:02:48.790Z,70.41
2018-08-01T13:03:29.580Z,70.31
2018-08-01T13:04:10.446Z,69.92
2018-08-01T13:04:51.249Z,70.31
2018-08-01T13:05:32.084Z,70.02
2018-08-01T13:06:12.814Z,70.31
2018-08-01T13:06:53.591Z,70.21
2018-08-01T13:07:34.444Z,70.41
2018-08-01T13:08:15.199Z,70.02
2018-08-01T13:08:55.950Z,70.12
2018-08-01T13:09:36.740Z,70.41
2018-08-01T13:10:17.515Z,70.31
2018-08-01T13:10:58.381Z,69.43
2018-08-01T13:11:39.141Z,67.97
2018-08-01T13:12:19.886Z,68.75
2018-08-01T13:13:00.713Z,69.73
2018-08-01T13:13:41.553Z,70.12
2018-08-01T13:14:22.394Z,70.02
2018-08-01T13:15:03.170Z,70.12
2018-08-01T13:15:43.946Z,70.41
2018-08-01T13:16:24.690Z,69.43
2018-08-01T13:17:05.521Z,69.14
2018-08-01T13:17:46.362Z,69.14
2018-08-01T13:18:27.259Z,69.34
2018-08-01T13:19:08.042Z,69.24
2018-08-01T13:19:48.826Z,69.92
2018-08-01T13:20:29.639Z,69.82
2018-08-01T13:21:10.397Z,69.73
2018-08-01T13:21:51.181Z,69.34
2018-08-01T13:22:31.950Z,69.92
2018-08-01T13:23:12.683Z,69.34
2018-08-01T13:23:53.565Z,70.21
2018-08-01T13:24:34.409Z,70.12
2018-08-01T13:25:15.234Z,70.21
2018-08-01T13:25:56.027Z,70.12
2018-08-01T13:26:36.741Z,70.41
2018-08-01T13:27:17.495Z,70.21
2018-08-01T13:27:58.320Z,69.73
2018-08-01T13:28:39.122Z,69.73
2018-08-01T13:29:19.899Z,69.92
2018-08-01T13:30:00.788Z,69.85
2018-08-01T13:30:41.576Z,70.31
2018-08-01T13:31:22.413Z,69.73
2018-08-01T13:32:03.312Z,69.92
2018-08-01T13:32:44.020Z,69.92
2018-08-01T13:33:24.698Z,69.63
2018-08-01T13:34:05.437Z,69.43
2018-08-01T13:34:46.294Z,69.95
2018-08-01T13:35:27.116Z,69.92
2018-08-01T13:36:07.915Z,69.82
2018-08-01T13:36:48.695Z,69.73
2018-08-01T13:37:29.421Z,69.92
2018-08-01T13:38:10.322Z,69.82
2018-08-01T13:38:51.142Z,70.25
2018-08-01T13:39:31.861Z,70.12
2018-08-01T13:40:12.594Z,70.12
2018-08-01T13:40:53.400Z,69.95
2018-08-01T13:41:34.214Z,68.55
2018-08-01T13:42:14.991Z,69.73
2018-08-01T13:42:55.749Z,69.14
2018-08-01T13:43:36.559Z,69.82
2018-08-01T13:44:17.393Z,69.92
2018-08-01T13:44:58.251Z,69.82
2018-08-01T13:45:39.009Z,69.92
2018-08-01T13:46:19.834Z,68.85
2018-08-01T13:47:00.636Z,69.63
2018-08-01T13:47:41.415Z,69.53
2018-08-01T13:48:22.171Z,69.73
2018-08-01T13:49:02.899Z,69.73
2018-08-01T13:49:43.709Z,69.92
2018-08-01T13:50:24.533Z,69.34
2018-08-01T13:51:05.407Z,69.63
2018-08-01T13:51:46.197Z,69.24
2018-08-01T13:52:26.923Z,67.58
2018-08-01T13:53:07.799Z,69.63
2018-08-01T13:53:48.561Z,69.34
2018-08-01T13:54:29.365Z,69.73
2018-08-01T13:55:10.205Z,70.12
2018-08-01T13:55:50.952Z,69.63
2018-08-01T13:56:31.802Z,69.34
2018-08-01T13:57:12.691Z,69.63
2018-08-01T13:57:53.499Z,69.53
2018-08-01T13:58:34.287Z,68.55
2018-08-01T13:59:15.023Z,69.43
2018-08-01T13:59:55.795Z,69.24
2018-08-01T14:00:36.541Z,68.95
2018-08-01T14:01:17.388Z,67.38
2018-08-01T14:01:58.209Z,68.16
2018-08-01T14:02:39.014Z,69.43
2018-08-01T14:03:19.807Z,68.55
2018-08-01T14:04:00.604Z,69.14
2018-08-01T14:04:41.482Z,69.34
2018-08-01T14:05:22.218Z,67.87
2018-08-01T14:06:03.006Z,69.14
2018-08-01T14:06:43.751Z,67.48
2018-08-01T14:07:24.572Z,66.99
2018-08-01T14:08:05.386Z,67.29
2018-08-01T14:08:46.233Z,68.07
2018-08-01T14:09:26.991Z,68.55
2018-08-01T14:10:07.767Z,69.24
2018-08-01T14:10:48.534Z,69.34
2018-08-01T14:11:29.377Z,68.75
2018-08-01T14:12:10.193Z,67.97
2018-08-01T14:12:50.989Z,68.26
2018-08-01T14:13:31.754Z,68.36
2018-08-01T14:14:12.610Z,68.07
2018-08-01T14:14:53.413Z,68.07
2018-08-01T14:15:34.250Z,67.19
2018-08-01T14:16:15.026Z,66.89
2018-08-01T14:16:55.802Z,67.68
2018-08-01T14:17:36.608Z,67.09
2018-08-01T14:18:17.499Z,68.16
2018-08-01T14:18:58.251Z,68.75
2018-08-01T14:19:39.063Z,68.26
2018-08-01T14:20:19.879Z,68.36
2018-08-01T14:21:00.705Z,67.87
2018-08-01T14:21:41.455Z,68.36
2018-08-01T14:22:22.212Z,68.26
2018-08-01T14:23:03.051Z,68.75
2018-08-01T14:23:43.873Z,68.65
2018-08-01T14:24:24.728Z,68.65
2018-08-01T14:25:05.417Z,68.07
2018-08-01T14:25:46.168Z,68.75
2018-08-01T14:26:26.925Z,68.16
2018-08-01T14:27:07.754Z,68.95
2018-08-01T14:27:48.608Z,68.55
2018-08-01T14:28:29.425Z,68.55
2018-08-01T14:29:10.230Z,68.46
2018-08-01T14:29:51.062Z,68.95
2018-08-01T14:30:31.862Z,68.95
2018-08-01T14:31:12.653Z,68.46
2018-08-01T14:31:53.422Z,66.5
2018-08-01T14:32:34.155Z,67.38
2018-08-01T14:33:14.965Z,67.97
2018-08-01T14:33:55.865Z,67.87
2018-08-01T14:34:36.730Z,68.55
2018-08-01T14:35:17.575Z,68.65
2018-08-01T14:35:58.359Z,68.55
2018-08-01T14:36:39.105Z,68.95
2018-08-01T14:37:19.898Z,68.65
2018-08-01T14:38:00.722Z,69.04
2018-08-01T14:38:41.565Z,68.95
2018-08-01T14:39:22.311Z,68.95
2018-08-01T14:40:03.112Z,68.85
2018-08-01T14:40:43.927Z,68.16
2018-08-01T14:41:24.715Z,68.55
2018-08-01T14:42:05.566Z,68.36
2018-08-01T14:42:46.328Z,68.85
2018-08-01T14:43:27.077Z,68.16
2018-08-01T14:44:07.888Z,68.75
2018-08-01T14:44:48.726Z,68.55
2018-08-01T14:45:29.537Z,69.04
2018-08-01T14:46:10.373Z,68.16
2018-08-01T14:46:51.119Z,68.46
2018-08-01T14:47:31.906Z,68.07
2018-08-01T14:48:12.834Z,68.36
2018-08-01T14:48:53.605Z,68.95
2018-08-01T14:49:34.347Z,68.16
2018-08-01T14:50:15.125Z,68.75
2018-08-01T14:50:55.945Z,68.55
2018-08-01T14:51:36.758Z,68.65
2018-08-01T14:52:17.497Z,68.65
2018-08-01T14:52:58.234Z,68.95
2018-08-01T14:53:39.075Z,68.75
2018-08-01T14:54:19.873Z,68.55
2018-08-01T14:55:00.699Z,68.75
2018-08-01T14:55:41.477Z,69.04
2018-08-01T14:56:22.275Z,69.04
2018-08-01T14:57:03.099Z,68.95
2018-08-01T14:57:43.896Z,68.46
2018-08-01T14:58:24.661Z,69.04
2018-08-01T14:59:05.421Z,68.07
2018-08-01T14:59:46.405Z,68.07
2018-08-01T15:00:27.120Z,68.65
2018-08-01T15:01:07.982Z,68.95
2018-08-01T15:01:48.758Z,68.75
2018-08-01T15:02:29.474Z,68.95
2018-08-01T15:03:10.249Z,69.04
2018-08-01T15:03:51.133Z,69.04
2018-08-01T15:04:31.960Z,68.65
2018-08-01T15:05:12.733Z,69.24
2018-08-01T15:05:53.513Z,69.14
2018-08-01T15:06:34.361Z,69.14
2018-08-01T15:07:15.198Z,69.14
2018-08-01T15:07:56.032Z,68.85
2018-08-01T15:08:36.797Z,68.85
2018-08-01T15:09:17.610Z,68.85
2018-08-01T15:09:58.441Z,69.24
2018-08-01T15:10:39.225Z,68.95
2018-08-01T15:11:19.979Z,69.04
2018-08-01T15:12:00.714Z,69.04
2018-08-01T15:12:41.553Z,69.24
2018-08-01T15:13:22.412Z,69.24
2018-08-01T15:14:03.588Z,69.63
2018-08-01T15:14:44.384Z,70.41
2018-08-01T15:15:25.237Z,69.92
2018-08-01T15:16:06.045Z,69.53
2018-08-01T15:16:46.865Z,69.34
2018-08-01T15:17:27.617Z,69.53
2018-08-01T15:18:08.392Z,69.04
2018-08-01T15:18:49.194Z,69.24
2018-08-01T15:19:30.013Z,69.53
2018-08-01T15:20:10.841Z,69.53
2018-08-01T15:20:51.694Z,69.14
2018-08-01T15:21:32.496Z,68.95
2018-08-01T15:22:13.254Z,68.95
2018-08-01T15:22:54.095Z,69.82
2018-08-01T15:23:34.874Z,69.24
2018-08-01T15:24:15.637Z,69.92
2018-08-01T15:24:56.406Z,69.63
2018-08-01T15:25:37.355Z,69.63
2018-08-01T15:26:18.422Z,69.92
2018-08-01T15:26:58.751Z,69.34
2018-08-01T15:27:39.569Z,69.92
2018-08-01T15:28:20.375Z,69.73
2018-08-01T15:29:01.186Z,70.21
2018-08-01T15:29:42.028Z,69.63
2018-08-01T15:30:22.749Z,69.63
2018-08-01T15:31:03.577Z,69.73
2018-08-01T15:31:44.421Z,70.12
2018-08-01T15:32:25.160Z,69.53
2018-08-01T15:33:05.895Z,69.82
2018-08-01T15:33:46.636Z,69.53
2018-08-01T15:34:27.417Z,69.63
2018-08-01T15:35:08.231Z,69.73
2018-08-01T15:35:49.102Z,69.63
2018-08-01T15:36:29.887Z,69.43
2018-08-01T15:37:10.641Z,69.43
2018-08-01T15:37:51.465Z,69.63
2018-08-01T15:38:32.215Z,69.63
2018-08-01T15:39:13.079Z,69.63
2018-08-01T15:39:53.870Z,69.53
2018-08-01T15:40:34.657Z,69.82
2018-08-01T15:41:15.557Z,69.4
2018-08-01T15:41:56.355Z,67.97
2018-08-01T15:42:37.209Z,68.65
2018-08-01T15:43:18.032Z,69.14
2018-08-01T15:43:58.789Z,68.75
2018-08-01T15:44:39.510Z,67.97
2018-08-01T15:45:20.305Z,66.66
2018-08-01T15:46:01.183Z,68.62
2018-08-01T15:46:41.973Z,67.05